Pagina principale
METAR-TAF:

METAR-TAF

Aeroporti :

Aeroporto di Guidonia

Guidonia Montecelio, Italia

latitudine: 42-00N, longitudine: 012-44E, altezza: 88 m

Osservazione

Il bollettino è stato emesso 1 ora e 3 minuti fa, alle 16:55 UTC
Vento 3 kt da est/nord-est
Temperature 9°C
Umidità 93%
Pressione 1019 hPa
Visibilità 10 km o più
Poco nuvoloso ad un'altezza di 2500 ft
Nubi sparse ad un'altezza di 3000 ft

METAR: LIRG 201655Z 06003KT 9999 FEW025 SCT030 09/08 Q1019 RMK OVC MON NE CIME INC NC VIS MIN 9999 BLU

Ora: 18:58 (17:58 UTC)

Previsione

Il bollettino è stato emesso 3 ore e 58 minuti fa, alle 14:00 UTC
Previsione valida dal 20 alle 15 UTC al 20 alle 24 UTC
Vento 7 kt da sud/sud-est
Visibilità 10 km o più
Nubi sparse ad un'altezza di 3000 ft
Nubi sparse ad un'altezza di 5000 ft
Temporaneamente
dal 20 alle 15 UTC al 20 alle 18 UTC
Nuvoloso ad un'altezza di 3000 ft
pioggia

TAF: LIRG 201400Z 2015/2024 15007KT 9999 SCT030 SCT050 TEMPO 2015/2018 RA BKN030

Osservazioni e previsioni meteorologiche di più di 4000 aeroporti (messaggi METAR e TAF).

Le stazioni disponibili sono rappresentate dai dischi gialli e rossi sulla carta.

Puntare il mouse per vedere il nome della stazione.

Clicca sopra per visualizzare le osservazioni e previsioni meteorologiche.

Per cambiare la mappa : fare clic sui pulsanti verdi con una croce nera per ingrandire, il pulsante verde con un trattino per diminuire, o sulla freccia verde per le mappe adiacenti.


METAR-TAF: